sensor_id;sensor_type;location;lat;lon;timestamp;P1;durP1;ratioP1;P2;durP2;ratioP2
62523;SDS011;53689;56.878;60.672;2022-10-23T00:01:34;15.63;;;10.90;;
62523;SDS011;53689;56.878;60.672;2022-10-23T00:04:04;13.48;;;10.15;;
62523;SDS011;53689;56.878;60.672;2022-10-23T00:06:32;10.93;;;8.88;;
62523;SDS011;53689;56.878;60.672;2022-10-23T00:09:04;11.77;;;9.55;;
62523;SDS011;53689;56.878;60.672;2022-10-23T00:11:32;12.25;;;9.63;;
62523;SDS011;53689;56.878;60.672;2022-10-23T00:14:02;10.35;;;9.18;;
62523;SDS011;53689;56.878;60.672;2022-10-23T00:16:33;12.30;;;8.98;;
62523;SDS011;53689;56.878;60.672;2022-10-23T00:19:02;14.48;;;9.52;;
62523;SDS011;53689;56.878;60.672;2022-10-23T00:21:30;12.30;;;9.38;;
62523;SDS011;53689;56.878;60.672;2022-10-23T00:23:57;13.77;;;9.63;;
62523;SDS011;53689;56.878;60.672;2022-10-23T00:26:25;12.00;;;10.50;;
62523;SDS011;53689;56.878;60.672;2022-10-23T00:28:53;16.52;;;10.77;;
62523;SDS011;53689;56.878;60.672;2022-10-23T00:31:21;13.13;;;10.25;;
62523;SDS011;53689;56.878;60.672;2022-10-23T00:33:51;14.65;;;13.07;;
62523;SDS011;53689;56.878;60.672;2022-10-23T00:36:19;14.02;;;10.63;;
62523;SDS011;53689;56.878;60.672;2022-10-23T00:38:48;14.63;;;11.57;;
62523;SDS011;53689;56.878;60.672;2022-10-23T00:41:19;14.55;;;10.48;;
62523;SDS011;53689;56.878;60.672;2022-10-23T00:43:55;14.82;;;11.48;;
62523;SDS011;53689;56.878;60.672;2022-10-23T00:46:33;14.27;;;10.60;;
62523;SDS011;53689;56.878;60.672;2022-10-23T00:49:03;14.27;;;10.20;;
62523;SDS011;53689;56.878;60.672;2022-10-23T00:51:35;12.98;;;9.43;;
62523;SDS011;53689;56.878;60.672;2022-10-23T00:54:06;12.70;;;9.68;;
62523;SDS011;53689;56.878;60.672;2022-10-23T00:56:51;11.98;;;9.40;;
62523;SDS011;53689;56.878;60.672;2022-10-23T00:59:33;12.35;;;9.80;;
62523;SDS011;53689;56.878;60.672;2022-10-23T01:02:02;10.00;;;8.38;;
62523;SDS011;53689;56.878;60.672;2022-10-23T01:04:39;10.18;;;8.38;;
62523;SDS011;53689;56.878;60.672;2022-10-23T01:07:08;10.13;;;8.43;;
62523;SDS011;53689;56.878;60.672;2022-10-23T01:09:41;14.18;;;8.88;;
62523;SDS011;53689;56.878;60.672;2022-10-23T01:12:15;11.52;;;8.80;;
62523;SDS011;53689;56.878;60.672;2022-10-23T01:14:53;11.63;;;8.70;;
62523;SDS011;53689;56.878;60.672;2022-10-23T01:17:28;13.60;;;8.48;;
62523;SDS011;53689;56.878;60.672;2022-10-23T01:20:06;9.40;;;7.97;;
62523;SDS011;53689;56.878;60.672;2022-10-23T01:25:49;11.07;;;8.05;;
62523;SDS011;53689;56.878;60.672;2022-10-23T01:28:28;11.48;;;8.13;;
62523;SDS011;53689;56.878;60.672;2022-10-23T01:30:59;12.30;;;7.88;;
62523;SDS011;53689;56.878;60.672;2022-10-23T01:33:35;11.90;;;8.85;;
62523;SDS011;53689;56.878;60.672;2022-10-23T01:36:09;13.27;;;8.80;;
62523;SDS011;53689;56.878;60.672;2022-10-23T01:38:43;10.88;;;8.77;;
62523;SDS011;53689;56.878;60.672;2022-10-23T01:41:19;12.70;;;8.80;;
62523;SDS011;53689;56.878;60.672;2022-10-23T01:43:58;10.68;;;8.60;;
62523;SDS011;53689;56.878;60.672;2022-10-23T01:46:32;10.88;;;7.53;;
62523;SDS011;53689;56.878;60.672;2022-10-23T01:49:01;11.35;;;8.02;;
62523;SDS011;53689;56.878;60.672;2022-10-23T01:51:32;11.05;;;7.75;;
62523;SDS011;53689;56.878;60.672;2022-10-23T01:54:06;12.50;;;8.05;;
62523;SDS011;53689;56.878;60.672;2022-10-23T01:56:36;10.48;;;7.57;;
62523;SDS011;53689;56.878;60.672;2022-10-23T01:59:10;9.77;;;7.70;;
62523;SDS011;53689;56.878;60.672;2022-10-23T02:01:42;8.98;;;7.82;;
62523;SDS011;53689;56.878;60.672;2022-10-23T02:04:14;10.35;;;7.45;;
62523;SDS011;53689;56.878;60.672;2022-10-23T02:06:47;10.35;;;8.00;;
62523;SDS011;53689;56.878;60.672;2022-10-23T02:09:15;9.95;;;8.75;;
62523;SDS011;53689;56.878;60.672;2022-10-23T02:11:43;12.43;;;9.50;;
62523;SDS011;53689;56.878;60.672;2022-10-23T02:14:26;14.57;;;11.20;;
62523;SDS011;53689;56.878;60.672;2022-10-23T02:17:03;12.40;;;10.48;;
62523;SDS011;53689;56.878;60.672;2022-10-23T02:19:37;11.60;;;9.60;;
62523;SDS011;53689;56.878;60.672;2022-10-23T02:22:11;13.60;;;10.77;;
62523;SDS011;53689;56.878;60.672;2022-10-23T02:24:43;11.10;;;9.60;;
62523;SDS011;53689;56.878;60.672;2022-10-23T02:27:16;14.40;;;9.50;;
62523;SDS011;53689;56.878;60.672;2022-10-23T02:29:52;13.32;;;9.68;;
62523;SDS011;53689;56.878;60.672;2022-10-23T02:32:25;10.10;;;8.68;;
62523;SDS011;53689;56.878;60.672;2022-10-23T02:34:54;10.15;;;8.43;;
62523;SDS011;53689;56.878;60.672;2022-10-23T02:37:22;11.40;;;9.05;;
62523;SDS011;53689;56.878;60.672;2022-10-23T02:39:50;13.45;;;9.68;;
62523;SDS011;53689;56.878;60.672;2022-10-23T02:42:20;12.85;;;9.32;;
62523;SDS011;53689;56.878;60.672;2022-10-23T02:44:56;13.05;;;9.32;;
62523;SDS011;53689;56.878;60.672;2022-10-23T02:47:45;10.33;;;8.80;;
62523;SDS011;53689;56.878;60.672;2022-10-23T02:50:23;12.45;;;8.07;;
62523;SDS011;53689;56.878;60.672;2022-10-23T02:52:57;9.90;;;6.90;;
62523;SDS011;53689;56.878;60.672;2022-10-23T02:55:33;10.48;;;7.85;;
62523;SDS011;53689;56.878;60.672;2022-10-23T02:58:09;10.48;;;6.70;;
62523;SDS011;53689;56.878;60.672;2022-10-23T03:00:52;10.27;;;7.82;;
62523;SDS011;53689;56.878;60.672;2022-10-23T03:03:31;13.65;;;9.48;;
62523;SDS011;53689;56.878;60.672;2022-10-23T03:06:06;10.25;;;7.32;;
62523;SDS011;53689;56.878;60.672;2022-10-23T03:08:44;10.30;;;7.57;;
62523;SDS011;53689;56.878;60.672;2022-10-23T03:11:17;10.50;;;7.40;;
62523;SDS011;53689;56.878;60.672;2022-10-23T03:13:45;10.63;;;8.23;;
62523;SDS011;53689;56.878;60.672;2022-10-23T03:16:13;9.75;;;7.28;;
62523;SDS011;53689;56.878;60.672;2022-10-23T03:18:47;10.18;;;8.20;;
62523;SDS011;53689;56.878;60.672;2022-10-23T03:21:16;10.18;;;8.00;;
62523;SDS011;53689;56.878;60.672;2022-10-23T03:23:43;11.27;;;8.50;;
62523;SDS011;53689;56.878;60.672;2022-10-23T03:26:16;10.85;;;8.32;;
62523;SDS011;53689;56.878;60.672;2022-10-23T03:28:43;10.48;;;8.43;;
62523;SDS011;53689;56.878;60.672;2022-10-23T03:31:11;11.02;;;8.68;;
62523;SDS011;53689;56.878;60.672;2022-10-23T03:33:39;10.02;;;8.10;;
62523;SDS011;53689;56.878;60.672;2022-10-23T03:36:10;11.05;;;8.30;;
62523;SDS011;53689;56.878;60.672;2022-10-23T03:38:38;9.85;;;7.80;;
62523;SDS011;53689;56.878;60.672;2022-10-23T03:41:05;11.25;;;8.50;;
62523;SDS011;53689;56.878;60.672;2022-10-23T03:43:33;12.75;;;8.65;;
62523;SDS011;53689;56.878;60.672;2022-10-23T03:46:01;11.48;;;8.75;;
62523;SDS011;53689;56.878;60.672;2022-10-23T03:48:31;11.88;;;8.32;;
62523;SDS011;53689;56.878;60.672;2022-10-23T03:51:00;12.57;;;8.98;;
62523;SDS011;53689;56.878;60.672;2022-10-23T03:53:29;11.73;;;8.23;;
62523;SDS011;53689;56.878;60.672;2022-10-23T03:56:00;11.00;;;8.48;;
62523;SDS011;53689;56.878;60.672;2022-10-23T03:58:28;11.13;;;8.38;;
62523;SDS011;53689;56.878;60.672;2022-10-23T04:00:55;14.05;;;9.32;;
62523;SDS011;53689;56.878;60.672;2022-10-23T04:03:23;11.85;;;8.25;;
62523;SDS011;53689;56.878;60.672;2022-10-23T04:05:51;12.63;;;8.48;;
62523;SDS011;53689;56.878;60.672;2022-10-23T04:08:22;10.82;;;8.02;;
62523;SDS011;53689;56.878;60.672;2022-10-23T04:10:52;14.60;;;8.38;;
62523;SDS011;53689;56.878;60.672;2022-10-23T04:13:29;13.45;;;9.23;;
62523;SDS011;53689;56.878;60.672;2022-10-23T04:15:57;12.05;;;8.23;;
62523;SDS011;53689;56.878;60.672;2022-10-23T04:18:24;12.52;;;8.75;;
62523;SDS011;53689;56.878;60.672;2022-10-23T04:20:52;12.07;;;8.45;;
62523;SDS011;53689;56.878;60.672;2022-10-23T04:23:21;10.90;;;8.57;;
62523;SDS011;53689;56.878;60.672;2022-10-23T04:25:49;13.90;;;8.40;;
62523;SDS011;53689;56.878;60.672;2022-10-23T04:28:21;11.65;;;8.73;;
62523;SDS011;53689;56.878;60.672;2022-10-23T04:30:49;11.93;;;8.40;;
62523;SDS011;53689;56.878;60.672;2022-10-23T04:33:16;13.25;;;8.68;;
62523;SDS011;53689;56.878;60.672;2022-10-23T04:35:47;11.80;;;8.30;;
62523;SDS011;53689;56.878;60.672;2022-10-23T04:38:15;15.93;;;9.70;;
62523;SDS011;53689;56.878;60.672;2022-10-23T04:40:47;11.70;;;8.43;;
62523;SDS011;53689;56.878;60.672;2022-10-23T04:43:19;12.48;;;8.80;;
62523;SDS011;53689;56.878;60.672;2022-10-23T04:45:47;10.65;;;8.13;;
62523;SDS011;53689;56.878;60.672;2022-10-23T04:48:15;13.70;;;8.52;;
62523;SDS011;53689;56.878;60.672;2022-10-23T04:51:03;18.83;;;11.65;;
62523;SDS011;53689;56.878;60.672;2022-10-23T04:53:51;12.05;;;8.40;;
62523;SDS011;53689;56.878;60.672;2022-10-23T04:56:35;13.50;;;8.65;;
62523;SDS011;53689;56.878;60.672;2022-10-23T04:59:07;13.05;;;8.35;;
62523;SDS011;53689;56.878;60.672;2022-10-23T05:01:36;14.32;;;8.45;;
62523;SDS011;53689;56.878;60.672;2022-10-23T05:04:06;9.98;;;8.32;;
62523;SDS011;53689;56.878;60.672;2022-10-23T05:06:48;12.50;;;8.18;;
62523;SDS011;53689;56.878;60.672;2022-10-23T05:09:26;11.02;;;7.88;;
62523;SDS011;53689;56.878;60.672;2022-10-23T05:12:15;10.82;;;7.57;;
62523;SDS011;53689;56.878;60.672;2022-10-23T05:14:43;13.63;;;8.77;;
62523;SDS011;53689;56.878;60.672;2022-10-23T05:17:13;13.60;;;8.43;;
62523;SDS011;53689;56.878;60.672;2022-10-23T05:19:49;11.48;;;8.02;;
62523;SDS011;53689;56.878;60.672;2022-10-23T05:22:25;12.02;;;7.97;;
62523;SDS011;53689;56.878;60.672;2022-10-23T05:24:56;11.90;;;8.15;;
62523;SDS011;53689;56.878;60.672;2022-10-23T05:27:26;12.13;;;8.20;;
62523;SDS011;53689;56.878;60.672;2022-10-23T05:29:54;12.50;;;8.25;;
62523;SDS011;53689;56.878;60.672;2022-10-23T05:32:25;10.93;;;8.50;;
62523;SDS011;53689;56.878;60.672;2022-10-23T05:34:56;11.70;;;8.30;;
62523;SDS011;53689;56.878;60.672;2022-10-23T05:37:27;16.55;;;9.35;;
62523;SDS011;53689;56.878;60.672;2022-10-23T05:40:05;13.18;;;8.70;;
62523;SDS011;53689;56.878;60.672;2022-10-23T05:42:37;14.50;;;8.80;;
62523;SDS011;53689;56.878;60.672;2022-10-23T05:45:09;15.77;;;9.23;;
62523;SDS011;53689;56.878;60.672;2022-10-23T05:48:00;13.65;;;8.88;;
62523;SDS011;53689;56.878;60.672;2022-10-23T05:51:19;16.98;;;9.77;;
62523;SDS011;53689;56.878;60.672;2022-10-23T05:54:17;13.85;;;8.55;;
62523;SDS011;53689;56.878;60.672;2022-10-23T05:56:54;12.38;;;9.02;;
62523;SDS011;53689;56.878;60.672;2022-10-23T05:59:31;12.43;;;9.02;;
62523;SDS011;53689;56.878;60.672;2022-10-23T06:02:10;17.17;;;11.23;;
62523;SDS011;53689;56.878;60.672;2022-10-23T06:04:51;14.88;;;9.25;;
62523;SDS011;53689;56.878;60.672;2022-10-23T06:07:38;12.70;;;8.25;;
62523;SDS011;53689;56.878;60.672;2022-10-23T06:10:08;11.57;;;8.80;;
62523;SDS011;53689;56.878;60.672;2022-10-23T06:12:41;15.20;;;10.57;;
62523;SDS011;53689;56.878;60.672;2022-10-23T06:15:15;15.13;;;9.40;;
62523;SDS011;53689;56.878;60.672;2022-10-23T06:18:04;11.75;;;8.73;;
62523;SDS011;53689;56.878;60.672;2022-10-23T06:20:46;14.85;;;8.95;;
62523;SDS011;53689;56.878;60.672;2022-10-23T06:23:22;14.15;;;9.23;;
62523;SDS011;53689;56.878;60.672;2022-10-23T06:29:24;13.25;;;8.98;;
62523;SDS011;53689;56.878;60.672;2022-10-23T06:31:53;15.57;;;9.10;;
62523;SDS011;53689;56.878;60.672;2022-10-23T06:34:22;13.73;;;9.25;;
62523;SDS011;53689;56.878;60.672;2022-10-23T06:36:50;15.13;;;9.27;;
62523;SDS011;53689;56.878;60.672;2022-10-23T06:39:43;12.90;;;8.60;;
62523;SDS011;53689;56.878;60.672;2022-10-23T06:42:13;13.57;;;8.85;;
62523;SDS011;53689;56.878;60.672;2022-10-23T06:44:53;13.45;;;8.57;;
62523;SDS011;53689;56.878;60.672;2022-10-23T06:47:49;13.80;;;9.00;;
62523;SDS011;53689;56.878;60.672;2022-10-23T06:50:35;17.05;;;10.82;;
62523;SDS011;53689;56.878;60.672;2022-10-23T06:53:09;14.02;;;9.38;;
62523;SDS011;53689;56.878;60.672;2022-10-23T06:55:41;12.80;;;8.70;;
62523;SDS011;53689;56.878;60.672;2022-10-23T06:58:10;14.15;;;9.25;;
62523;SDS011;53689;56.878;60.672;2022-10-23T07:00:53;11.90;;;8.10;;
62523;SDS011;53689;56.878;60.672;2022-10-23T07:03:23;14.80;;;9.68;;
62523;SDS011;53689;56.878;60.672;2022-10-23T07:05:51;13.85;;;8.95;;
62523;SDS011;53689;56.878;60.672;2022-10-23T07:08:19;12.07;;;8.57;;
62523;SDS011;53689;56.878;60.672;2022-10-23T07:10:51;13.93;;;9.40;;
62523;SDS011;53689;56.878;60.672;2022-10-23T07:13:19;11.95;;;8.52;;
62523;SDS011;53689;56.878;60.672;2022-10-23T07:15:56;13.43;;;8.60;;
62523;SDS011;53689;56.878;60.672;2022-10-23T07:18:27;15.20;;;9.00;;
62523;SDS011;53689;56.878;60.672;2022-10-23T07:21:23;13.15;;;7.75;;
62523;SDS011;53689;56.878;60.672;2022-10-23T07:23:54;11.63;;;8.77;;
62523;SDS011;53689;56.878;60.672;2022-10-23T07:26:22;15.13;;;9.32;;
62523;SDS011;53689;56.878;60.672;2022-10-23T07:28:50;15.65;;;10.85;;
62523;SDS011;53689;56.878;60.672;2022-10-23T07:34:13;13.57;;;8.73;;
62523;SDS011;53689;56.878;60.672;2022-10-23T07:36:43;17.02;;;9.30;;
62523;SDS011;53689;56.878;60.672;2022-10-23T07:39:11;12.30;;;8.63;;
62523;SDS011;53689;56.878;60.672;2022-10-23T07:41:46;16.90;;;10.85;;
62523;SDS011;53689;56.878;60.672;2022-10-23T07:44:13;15.25;;;9.43;;
62523;SDS011;53689;56.878;60.672;2022-10-23T07:46:42;15.75;;;9.65;;
62523;SDS011;53689;56.878;60.672;2022-10-23T07:49:09;14.70;;;10.15;;
62523;SDS011;53689;56.878;60.672;2022-10-23T07:51:40;19.13;;;11.93;;
62523;SDS011;53689;56.878;60.672;2022-10-23T07:54:08;14.98;;;9.43;;
62523;SDS011;53689;56.878;60.672;2022-10-23T07:57:07;14.00;;;9.10;;
62523;SDS011;53689;56.878;60.672;2022-10-23T07:59:43;14.77;;;9.73;;
62523;SDS011;53689;56.878;60.672;2022-10-23T08:02:14;13.95;;;9.18;;
62523;SDS011;53689;56.878;60.672;2022-10-23T08:04:42;13.02;;;8.52;;
62523;SDS011;53689;56.878;60.672;2022-10-23T08:07:24;18.73;;;10.80;;
62523;SDS011;53689;56.878;60.672;2022-10-23T08:09:54;14.43;;;8.68;;
62523;SDS011;53689;56.878;60.672;2022-10-23T08:12:22;14.38;;;9.65;;
62523;SDS011;53689;56.878;60.672;2022-10-23T08:14:49;11.77;;;8.27;;
62523;SDS011;53689;56.878;60.672;2022-10-23T08:17:17;17.98;;;10.48;;
62523;SDS011;53689;56.878;60.672;2022-10-23T08:20:16;13.05;;;7.88;;
62523;SDS011;53689;56.878;60.672;2022-10-23T08:22:46;10.93;;;7.55;;
62523;SDS011;53689;56.878;60.672;2022-10-23T08:25:19;10.05;;;7.32;;
62523;SDS011;53689;56.878;60.672;2022-10-23T08:27:52;10.70;;;7.97;;
62523;SDS011;53689;56.878;60.672;2022-10-23T08:30:19;10.32;;;7.85;;
62523;SDS011;53689;56.878;60.672;2022-10-23T08:32:47;11.73;;;7.38;;
62523;SDS011;53689;56.878;60.672;2022-10-23T08:35:15;12.07;;;8.15;;
62523;SDS011;53689;56.878;60.672;2022-10-23T08:37:43;12.07;;;7.00;;
62523;SDS011;53689;56.878;60.672;2022-10-23T08:40:14;10.50;;;7.28;;
62523;SDS011;53689;56.878;60.672;2022-10-23T08:43:02;8.88;;;6.60;;
62523;SDS011;53689;56.878;60.672;2022-10-23T08:45:50;11.88;;;6.95;;
62523;SDS011;53689;56.878;60.672;2022-10-23T08:48:50;12.38;;;6.72;;
62523;SDS011;53689;56.878;60.672;2022-10-23T08:51:49;9.65;;;5.88;;
62523;SDS011;53689;56.878;60.672;2022-10-23T08:54:21;11.05;;;7.10;;
62523;SDS011;53689;56.878;60.672;2022-10-23T08:56:56;9.85;;;6.28;;
62523;SDS011;53689;56.878;60.672;2022-10-23T08:59:30;10.38;;;6.10;;
62523;SDS011;53689;56.878;60.672;2022-10-23T09:02:03;10.38;;;5.55;;
62523;SDS011;53689;56.878;60.672;2022-10-23T09:04:36;10.45;;;6.57;;
62523;SDS011;53689;56.878;60.672;2022-10-23T09:07:06;9.98;;;5.80;;
62523;SDS011;53689;56.878;60.672;2022-10-23T09:09:49;9.93;;;6.07;;
62523;SDS011;53689;56.878;60.672;2022-10-23T09:12:29;8.75;;;5.57;;
62523;SDS011;53689;56.878;60.672;2022-10-23T09:15:04;10.18;;;5.78;;
62523;SDS011;53689;56.878;60.672;2022-10-23T09:17:41;8.50;;;5.90;;
62523;SDS011;53689;56.878;60.672;2022-10-23T09:20:12;7.72;;;5.20;;
62523;SDS011;53689;56.878;60.672;2022-10-23T09:22:44;9.52;;;5.85;;
62523;SDS011;53689;56.878;60.672;2022-10-23T09:25:15;9.68;;;5.60;;
62523;SDS011;53689;56.878;60.672;2022-10-23T09:27:47;9.93;;;5.90;;
62523;SDS011;53689;56.878;60.672;2022-10-23T09:30:25;9.90;;;5.78;;
62523;SDS011;53689;56.878;60.672;2022-10-23T09:32:54;10.98;;;5.70;;
62523;SDS011;53689;56.878;60.672;2022-10-23T09:35:22;10.43;;;5.57;;
62523;SDS011;53689;56.878;60.672;2022-10-23T09:37:51;8.20;;;5.95;;
62523;SDS011;53689;56.878;60.672;2022-10-23T09:40:22;10.30;;;6.05;;
62523;SDS011;53689;56.878;60.672;2022-10-23T09:42:58;10.15;;;6.05;;
62523;SDS011;53689;56.878;60.672;2022-10-23T09:45:28;10.93;;;7.05;;
62523;SDS011;53689;56.878;60.672;2022-10-23T09:48:03;8.73;;;5.47;;
62523;SDS011;53689;56.878;60.672;2022-10-23T09:50:32;9.05;;;6.07;;
62523;SDS011;53689;56.878;60.672;2022-10-23T09:52:59;10.98;;;7.10;;
62523;SDS011;53689;56.878;60.672;2022-10-23T09:55:27;10.40;;;6.28;;
62523;SDS011;53689;56.878;60.672;2022-10-23T09:57:55;10.82;;;6.95;;
62523;SDS011;53689;56.878;60.672;2022-10-23T10:00:24;12.90;;;7.43;;
62523;SDS011;53689;56.878;60.672;2022-10-23T10:02:54;13.38;;;7.70;;
62523;SDS011;53689;56.878;60.672;2022-10-23T10:05:41;17.27;;;7.78;;
62523;SDS011;53689;56.878;60.672;2022-10-23T10:08:20;11.82;;;7.00;;
62523;SDS011;53689;56.878;60.672;2022-10-23T10:10:57;15.27;;;7.55;;
62523;SDS011;53689;56.878;60.672;2022-10-23T10:13:33;14.05;;;7.60;;
62523;SDS011;53689;56.878;60.672;2022-10-23T10:16:20;13.07;;;7.63;;
62523;SDS011;53689;56.878;60.672;2022-10-23T10:19:00;10.83;;;6.20;;
62523;SDS011;53689;56.878;60.672;2022-10-23T10:21:55;9.70;;;6.22;;
62523;SDS011;53689;56.878;60.672;2022-10-23T10:24:29;11.38;;;5.85;;
62523;SDS011;53689;56.878;60.672;2022-10-23T10:27:03;13.00;;;6.55;;
62523;SDS011;53689;56.878;60.672;2022-10-23T10:29:44;12.68;;;6.00;;
62523;SDS011;53689;56.878;60.672;2022-10-23T10:32:30;10.75;;;5.85;;
62523;SDS011;53689;56.878;60.672;2022-10-23T10:35:11;12.25;;;6.43;;
62523;SDS011;53689;56.878;60.672;2022-10-23T10:38:10;12.45;;;6.38;;
62523;SDS011;53689;56.878;60.672;2022-10-23T10:40:47;11.63;;;6.07;;
62523;SDS011;53689;56.878;60.672;2022-10-23T10:43:23;11.60;;;6.22;;
62523;SDS011;53689;56.878;60.672;2022-10-23T10:46:04;12.70;;;6.47;;
62523;SDS011;53689;56.878;60.672;2022-10-23T10:48:40;10.90;;;6.30;;
62523;SDS011;53689;56.878;60.672;2022-10-23T10:51:28;13.68;;;5.68;;
62523;SDS011;53689;56.878;60.672;2022-10-23T10:54:07;9.93;;;6.07;;
62523;SDS011;53689;56.878;60.672;2022-10-23T10:57:01;14.07;;;6.25;;
62523;SDS011;53689;56.878;60.672;2022-10-23T10:59:37;10.73;;;5.82;;
62523;SDS011;53689;56.878;60.672;2022-10-23T11:02:19;10.43;;;5.53;;
62523;SDS011;53689;56.878;60.672;2022-10-23T11:07:24;10.93;;;6.28;;
62523;SDS011;53689;56.878;60.672;2022-10-23T11:09:55;9.75;;;5.63;;
62523;SDS011;53689;56.878;60.672;2022-10-23T11:12:28;8.05;;;5.65;;
62523;SDS011;53689;56.878;60.672;2022-10-23T11:14:56;10.95;;;6.50;;
62523;SDS011;53689;56.878;60.672;2022-10-23T11:17:26;13.05;;;7.15;;
62523;SDS011;53689;56.878;60.672;2022-10-23T11:20:01;12.52;;;6.28;;
62523;SDS011;53689;56.878;60.672;2022-10-23T11:22:33;10.50;;;6.90;;
62523;SDS011;53689;56.878;60.672;2022-10-23T11:25:16;12.82;;;7.10;;
62523;SDS011;53689;56.878;60.672;2022-10-23T11:28:05;14.23;;;8.38;;
62523;SDS011;53689;56.878;60.672;2022-10-23T11:30:47;11.00;;;6.85;;
62523;SDS011;53689;56.878;60.672;2022-10-23T11:33:37;10.13;;;6.18;;
62523;SDS011;53689;56.878;60.672;2022-10-23T11:36:31;10.02;;;6.10;;
62523;SDS011;53689;56.878;60.672;2022-10-23T11:39:14;11.32;;;6.22;;
62523;SDS011;53689;56.878;60.672;2022-10-23T11:41:47;16.13;;;8.18;;
62523;SDS011;53689;56.878;60.672;2022-10-23T11:44:24;11.13;;;6.47;;
62523;SDS011;53689;56.878;60.672;2022-10-23T11:47:24;12.20;;;7.50;;
62523;SDS011;53689;56.878;60.672;2022-10-23T11:55:56;12.88;;;6.78;;
62523;SDS011;53689;56.878;60.672;2022-10-23T11:58:26;13.80;;;7.38;;
62523;SDS011;53689;56.878;60.672;2022-10-23T12:01:14;14.50;;;8.20;;
62523;SDS011;53689;56.878;60.672;2022-10-23T12:04:00;16.67;;;8.93;;
62523;SDS011;53689;56.878;60.672;2022-10-23T12:06:37;15.68;;;8.82;;
62523;SDS011;53689;56.878;60.672;2022-10-23T12:09:07;19.70;;;11.77;;
62523;SDS011;53689;56.878;60.672;2022-10-23T12:11:59;15.23;;;8.73;;
62523;SDS011;53689;56.878;60.672;2022-10-23T12:14:32;12.80;;;8.45;;
62523;SDS011;53689;56.878;60.672;2022-10-23T12:17:14;16.90;;;10.57;;
62523;SDS011;53689;56.878;60.672;2022-10-23T12:19:54;16.13;;;10.25;;
62523;SDS011;53689;56.878;60.672;2022-10-23T12:22:32;17.90;;;11.05;;
62523;SDS011;53689;56.878;60.672;2022-10-23T12:25:10;17.85;;;12.07;;
62523;SDS011;53689;56.878;60.672;2022-10-23T12:27:43;19.48;;;10.93;;
62523;SDS011;53689;56.878;60.672;2022-10-23T12:30:18;17.85;;;11.60;;
62523;SDS011;53689;56.878;60.672;2022-10-23T12:33:00;17.85;;;11.48;;
62523;SDS011;53689;56.878;60.672;2022-10-23T12:38:47;16.40;;;11.00;;
62523;SDS011;53689;56.878;60.672;2022-10-23T12:41:18;16.65;;;10.63;;
62523;SDS011;53689;56.878;60.672;2022-10-23T12:43:49;18.23;;;11.68;;
62523;SDS011;53689;56.878;60.672;2022-10-23T12:46:30;20.02;;;11.00;;
62523;SDS011;53689;56.878;60.672;2022-10-23T12:49:00;16.42;;;11.05;;
62523;SDS011;53689;56.878;60.672;2022-10-23T12:51:31;23.17;;;12.98;;
62523;SDS011;53689;56.878;60.672;2022-10-23T12:56:33;18.38;;;10.85;;
62523;SDS011;53689;56.878;60.672;2022-10-23T12:59:02;14.38;;;9.93;;
62523;SDS011;53689;56.878;60.672;2022-10-23T13:01:31;20.65;;;11.95;;
62523;SDS011;53689;56.878;60.672;2022-10-23T13:04:01;15.20;;;9.93;;
62523;SDS011;53689;56.878;60.672;2022-10-23T13:06:33;15.35;;;9.65;;
62523;SDS011;53689;56.878;60.672;2022-10-23T13:09:03;15.93;;;9.50;;
62523;SDS011;53689;56.878;60.672;2022-10-23T13:11:32;16.48;;;10.18;;
62523;SDS011;53689;56.878;60.672;2022-10-23T13:14:09;20.77;;;11.82;;
62523;SDS011;53689;56.878;60.672;2022-10-23T13:16:38;16.05;;;11.07;;
62523;SDS011;53689;56.878;60.672;2022-10-23T13:19:05;17.10;;;10.00;;
62523;SDS011;53689;56.878;60.672;2022-10-23T13:21:47;13.95;;;8.88;;
62523;SDS011;53689;56.878;60.672;2022-10-23T13:24:18;16.38;;;10.55;;
62523;SDS011;53689;56.878;60.672;2022-10-23T13:26:47;16.35;;;11.15;;
62523;SDS011;53689;56.878;60.672;2022-10-23T13:29:16;17.92;;;10.15;;
62523;SDS011;53689;56.878;60.672;2022-10-23T13:31:46;18.23;;;12.18;;
62523;SDS011;53689;56.878;60.672;2022-10-23T13:34:22;16.85;;;10.23;;
62523;SDS011;53689;56.878;60.672;2022-10-23T13:36:53;22.75;;;12.88;;
62523;SDS011;53689;56.878;60.672;2022-10-23T13:39:30;22.08;;;13.45;;
62523;SDS011;53689;56.878;60.672;2022-10-23T13:42:08;17.20;;;11.43;;
62523;SDS011;53689;56.878;60.672;2022-10-23T13:44:38;20.48;;;12.68;;
62523;SDS011;53689;56.878;60.672;2022-10-23T13:47:09;19.08;;;9.85;;
62523;SDS011;53689;56.878;60.672;2022-10-23T13:49:38;20.98;;;11.73;;
62523;SDS011;53689;56.878;60.672;2022-10-23T13:52:07;18.15;;;11.73;;
62523;SDS011;53689;56.878;60.672;2022-10-23T13:54:38;17.98;;;11.40;;
62523;SDS011;53689;56.878;60.672;2022-10-23T13:57:08;17.08;;;9.55;;
62523;SDS011;53689;56.878;60.672;2022-10-23T13:59:39;14.15;;;9.13;;
62523;SDS011;53689;56.878;60.672;2022-10-23T14:02:09;17.10;;;10.73;;
62523;SDS011;53689;56.878;60.672;2022-10-23T14:04:43;14.52;;;9.93;;
62523;SDS011;53689;56.878;60.672;2022-10-23T14:07:11;17.00;;;10.05;;
62523;SDS011;53689;56.878;60.672;2022-10-23T14:09:40;20.52;;;12.45;;
62523;SDS011;53689;56.878;60.672;2022-10-23T14:12:08;17.83;;;11.00;;
62523;SDS011;53689;56.878;60.672;2022-10-23T14:14:35;25.13;;;13.15;;
62523;SDS011;53689;56.878;60.672;2022-10-23T14:17:03;17.67;;;11.38;;
62523;SDS011;53689;56.878;60.672;2022-10-23T14:19:31;18.02;;;11.70;;
62523;SDS011;53689;56.878;60.672;2022-10-23T14:21:59;17.63;;;10.48;;
62523;SDS011;53689;56.878;60.672;2022-10-23T14:24:27;17.02;;;10.55;;
62523;SDS011;53689;56.878;60.672;2022-10-23T14:26:57;16.13;;;10.48;;
62523;SDS011;53689;56.878;60.672;2022-10-23T14:29:25;21.20;;;13.93;;
62523;SDS011;53689;56.878;60.672;2022-10-23T14:31:52;16.38;;;9.60;;
62523;SDS011;53689;56.878;60.672;2022-10-23T14:34:20;15.45;;;9.73;;
62523;SDS011;53689;56.878;60.672;2022-10-23T14:36:47;21.48;;;11.63;;
62523;SDS011;53689;56.878;60.672;2022-10-23T14:39:29;17.10;;;12.07;;
62523;SDS011;53689;56.878;60.672;2022-10-23T14:41:59;20.85;;;11.55;;
62523;SDS011;53689;56.878;60.672;2022-10-23T14:44:26;22.60;;;12.67;;
62523;SDS011;53689;56.878;60.672;2022-10-23T14:46:54;18.58;;;12.10;;
62523;SDS011;53689;56.878;60.672;2022-10-23T14:49:21;24.38;;;13.18;;
62523;SDS011;53689;56.878;60.672;2022-10-23T14:51:49;17.98;;;10.32;;
62523;SDS011;53689;56.878;60.672;2022-10-23T14:54:16;16.70;;;10.20;;
62523;SDS011;53689;56.878;60.672;2022-10-23T14:56:44;17.88;;;10.68;;
62523;SDS011;53689;56.878;60.672;2022-10-23T14:59:17;20.35;;;10.70;;
62523;SDS011;53689;56.878;60.672;2022-10-23T15:01:44;18.33;;;7.87;;
62523;SDS011;53689;56.878;60.672;2022-10-23T15:06:42;16.73;;;9.70;;
62523;SDS011;53689;56.878;60.672;2022-10-23T15:09:12;14.77;;;7.93;;
62523;SDS011;53689;56.878;60.672;2022-10-23T15:11:40;12.65;;;8.20;;
62523;SDS011;53689;56.878;60.672;2022-10-23T15:14:11;14.95;;;7.80;;
62523;SDS011;53689;56.878;60.672;2022-10-23T15:16:44;14.82;;;7.75;;
62523;SDS011;53689;56.878;60.672;2022-10-23T15:19:14;13.13;;;8.32;;
62523;SDS011;53689;56.878;60.672;2022-10-23T15:21:44;16.10;;;8.95;;
62523;SDS011;53689;56.878;60.672;2022-10-23T15:24:14;15.05;;;9.95;;